EPWAEPWR

Guest
Details From EPWA - WARSZAWA Okecie
To EPWR - STRACHOWICE
Flight Number -
Tags decoded
Created
Modified
Stats Distance 169 nm / 312 km
Max Altitude 0 ft / 0 m
Waypoints 4
Social Downloads 4
Likes 0
Share VATSIM

Download

Looking for another format? Having issues loading an existing format? Contact us
Advertisement - Login to hide

Notes

Requested: EPWA SOXER N869 AGALU EPWR Unmatched points: N869

Route

EPWA SOXER AGALU EPWR

ID Type Via Altitude Latitude Longitude Leg Dist Tot Dist Heading (true) Name
O EPWA APT - 0 ft / 0 m 52.16509˚ 20.96692˚ - 0 nm - WARSZAWA Okecie
SOXER FIX - 0 ft / 0 m 52.04383˚ 19.93497˚ 38 nm 38 nm 260° / 259° -
AGALU FIX - 0 ft / 0 m 51.47139˚ 17.38556˚ 100 nm 139 nm 251° / 249° -
O EPWR APT - 0 ft / 0 m 51.10388˚ 16.88189˚ 29 nm 168 nm 221° / 220° STRACHOWICE

Altitude Profile

Advertisement - Login to hide

Weather


0- 5 10 15 20 25 30 35+ Temperature / ° C

Clouds and Precipitation
Forecast for 2017-12-13 06:00 UTC. Updated 2 minutes ago

Ground ~20,000 ft ~40,000 ft Winds

EPWA

Details ICAO EPWA (WAW)
Name WARSZAWA Okecie
Region Poland
Timezone Europe/Warsaw (UTC+1.0)
Stats Elevation 328 ft / 100 m (AMSL)
Location 52.165091° 20.966923°
Runways 2
Magnetic Variation 5.801° E

METAR

EPWA 130500Z 28007KT 250V310 9999 SCT038 01/M02 Q1014 NOSIG

Decode

TAF

TAF EPWA 122330Z 1300/1324 27014KT 9999 BKN040 PROB40 TEMPO 1302/1309 BKN014 BECMG 1310/1313 20005KT BECMG 1320/1322 17015KT

Decode

Departure Runways

ID Width Length Bearing (true) Bearing (mag) Surface Threshold Offset Overrun Length
11 164 ft / 50 m 9,163 ft / 2,793 m 114.64° 108.84° Asphalt 0 ft / 0 m 476 ft / 145 m
15 197 ft / 60 m 12,112 ft / 3,692 m 151.85° 146.05° Asphalt 0 ft / 0 m 0 ft / 0 m
29 164 ft / 50 m 9,163 ft / 2,793 m 294.67° 288.87° Asphalt 1,608 ft / 490 m 0 ft / 0 m
33 197 ft / 60 m 12,112 ft / 3,692 m 331.87° 326.07° Asphalt 0 ft / 0 m 0 ft / 0 m

EPWR

Details ICAO EPWR (WRO)
Name STRACHOWICE
Region Poland
Timezone Europe/Warsaw (UTC+1.0)
Stats Elevation 404 ft / 123 m (AMSL)
Location 51.103882° 16.881892°
Runways 1
Magnetic Variation 4.612° E

METAR

EPWR 130500Z 23007KT 9999 FEW032 02/M02 Q1016

Decode

TAF

TAF EPWR 122330Z 1300/1324 24008KT 9999 SCT026 PROB40 TEMPO 1300/1306 BKN014 BECMG 1308/1310 18010KT

Decode

Destination Runways

ID Width Length Bearing (true) Bearing (mag) Surface Threshold Offset Overrun Length
12 197 ft / 60 m 8,192 ft / 2,497 m 115.99° 111.38° Concrete 0 ft / 0 m 0 ft / 0 m
30 197 ft / 60 m 8,192 ft / 2,497 m 296.01° 291.40° Concrete 0 ft / 0 m 0 ft / 0 m

Approach Navaids

Runway Type Ident Frequency Range Bearing (true) Bearing (mag) Slope Elevation
30 Localiser WRO 110.30 MHz 18 nm / 33 km 295.98° 291.37° - 404 ft / 123 m (AMSL)
30 Glidescope WRO 110.30 MHz 10 nm / 19 km 296.00° 291.39° 3.00° 404 ft / 123 m (AMSL)
30 DME WRO 110.30 MHz 18 nm / 33 km - - - 394 ft / 120 m (AMSL)

Popular Alternatives